createdAt,value
2023-02-12T00:00:33.063Z,83.20
2023-02-12T00:01:33.049Z,80.80
2023-02-12T00:02:33.104Z,83.60
2023-02-12T00:03:33.075Z,85.30
2023-02-12T00:04:33.056Z,82.70
2023-02-12T00:05:33.061Z,84.80
2023-02-12T00:06:33.050Z,85.00
2023-02-12T00:07:33.025Z,82.40
2023-02-12T00:08:33.017Z,88.30
2023-02-12T00:09:33.028Z,85.50
2023-02-12T00:10:33.003Z,86.50
2023-02-12T00:11:33.008Z,85.30
2023-02-12T00:12:32.998Z,83.60
2023-02-12T00:13:32.974Z,83.50
2023-02-12T00:14:32.999Z,86.90
2023-02-12T00:15:33.024Z,82.60
2023-02-12T00:16:32.982Z,82.90
2023-02-12T00:17:33.007Z,84.10
2023-02-12T00:18:32.977Z,90.00
2023-02-12T00:19:32.947Z,84.80
2023-02-12T00:20:32.976Z,86.40
2023-02-12T00:21:32.965Z,83.50
2023-02-12T00:22:32.940Z,88.30
2023-02-12T00:23:32.941Z,81.80
2023-02-12T00:24:32.936Z,81.80
2023-02-12T00:25:32.910Z,79.40
2023-02-12T00:26:32.931Z,81.70
2023-02-12T00:27:32.900Z,79.50
2023-02-12T00:28:32.952Z,78.70
2023-02-12T00:29:32.904Z,83.70
2023-02-12T00:30:32.956Z,79.50
2023-02-12T00:31:32.921Z,79.10
2023-02-12T00:32:32.896Z,81.40
2023-02-12T00:33:32.874Z,83.70
2023-02-12T00:34:32.890Z,81.30
2023-02-12T00:35:32.865Z,81.30
2023-02-12T00:36:32.882Z,80.60
2023-02-12T00:37:32.859Z,86.70
2023-02-12T00:38:32.885Z,86.80
2023-02-12T00:39:32.850Z,89.30
2023-02-12T00:40:32.860Z,82.20
2023-02-12T00:41:32.838Z,81.60
2023-02-12T00:42:32.832Z,81.90
2023-02-12T00:43:32.829Z,79.90
2023-02-12T00:44:32.852Z,82.50
2023-02-12T00:45:32.840Z,82.60
2023-02-12T00:46:32.901Z,82.30
2023-02-12T00:47:32.801Z,77.90
2023-02-12T00:48:32.810Z,80.70
2023-02-12T00:49:32.802Z,82.40
2023-02-12T00:50:32.812Z,78.90
2023-02-12T00:51:32.762Z,78.70
2023-02-12T00:52:32.789Z,78.40
2023-02-12T00:53:32.774Z,79.50
2023-02-12T00:54:32.794Z,82.20
2023-02-12T00:55:32.751Z,83.10
2023-02-12T00:56:32.770Z,83.30
2023-02-12T00:57:32.758Z,82.80
2023-02-12T00:58:32.870Z,84.00
2023-02-12T00:59:32.722Z,84.50
2023-02-12T01:00:32.730Z,87.50
2023-02-12T01:01:32.821Z,83.20
2023-02-12T01:02:32.718Z,85.30
2023-02-12T01:03:32.759Z,85.00
2023-02-12T01:04:32.727Z,84.60
2023-02-12T01:05:32.710Z,80.30
2023-02-12T01:06:32.750Z,84.70
2023-02-12T01:07:32.702Z,80.60
2023-02-12T01:08:32.699Z,83.60
2023-02-12T01:09:32.679Z,79.10
2023-02-12T01:10:32.673Z,80.10
2023-02-12T01:11:32.673Z,83.00
2023-02-12T01:12:32.689Z,86.10
2023-02-12T01:13:32.655Z,87.20
2023-02-12T01:14:32.651Z,87.70
2023-02-12T01:15:32.637Z,86.60
2023-02-12T01:16:32.738Z,85.00
2023-02-12T01:17:32.656Z,86.10
2023-02-12T01:18:32.639Z,80.50
2023-02-12T01:19:32.640Z,87.30
2023-02-12T01:20:32.608Z,84.00
2023-02-12T01:21:32.634Z,85.80
2023-02-12T01:22:32.610Z,88.20
2023-02-12T01:23:32.595Z,81.30
2023-02-12T01:24:32.629Z,82.90
2023-02-12T01:25:32.607Z,92.30
2023-02-12T01:26:32.589Z,80.40
2023-02-12T01:27:32.584Z,82.40
2023-02-12T01:28:32.668Z,83.70
2023-02-12T01:29:32.575Z,87.50
2023-02-12T01:30:32.567Z,85.20
2023-02-12T01:31:32.622Z,83.20
2023-02-12T01:32:32.555Z,87.80
2023-02-12T01:33:32.571Z,79.80
2023-02-12T01:34:32.560Z,85.00
2023-02-12T01:35:32.559Z,85.70
2023-02-12T01:36:32.521Z,84.30
2023-02-12T01:37:32.526Z,81.90
2023-02-12T01:38:32.518Z,81.80
2023-02-12T01:39:32.516Z,85.80
2023-02-12T01:40:32.513Z,87.80
2023-02-12T01:41:32.528Z,88.80
2023-02-12T01:42:32.493Z,84.50
2023-02-12T01:43:32.485Z,89.50
2023-02-12T01:44:32.487Z,85.30
2023-02-12T01:45:32.482Z,87.90
2023-02-12T01:46:32.531Z,88.20
2023-02-12T01:47:32.517Z,81.90
2023-02-12T01:48:32.458Z,90.30
2023-02-12T01:49:32.445Z,82.40
2023-02-12T01:50:32.452Z,82.30
2023-02-12T01:51:32.449Z,85.60
2023-02-12T01:52:32.437Z,82.90
2023-02-12T01:53:32.464Z,86.20
2023-02-12T01:54:32.437Z,86.10
2023-02-12T01:55:32.434Z,81.10
2023-02-12T01:56:32.422Z,87.20
2023-02-12T01:57:32.418Z,87.70
2023-02-12T01:58:32.395Z,84.30
2023-02-12T01:59:32.413Z,83.70
2023-02-12T02:00:32.410Z,83.70
2023-02-12T02:01:32.394Z,91.00
2023-02-12T02:02:32.386Z,89.60
2023-02-12T02:03:32.449Z,84.80
2023-02-12T02:04:32.389Z,84.90
2023-02-12T02:05:32.404Z,86.90
2023-02-12T02:06:32.358Z,85.10
2023-02-12T02:07:32.357Z,87.40
2023-02-12T02:08:32.356Z,84.50
2023-02-12T02:09:32.361Z,86.70
2023-02-12T02:10:32.337Z,87.60
2023-02-12T02:11:32.363Z,87.90
2023-02-12T02:12:32.330Z,89.00
2023-02-12T02:13:32.319Z,87.10
2023-02-12T02:14:32.318Z,86.60
2023-02-12T02:15:32.318Z,82.50
2023-02-12T02:16:32.335Z,81.80
2023-02-12T02:17:32.293Z,89.50
2023-02-12T02:18:32.304Z,84.50
2023-02-12T02:19:32.312Z,83.70
2023-02-12T02:20:32.315Z,87.60
2023-02-12T02:21:32.276Z,86.40
2023-02-12T02:22:32.264Z,89.20
2023-02-12T02:23:32.275Z,83.00
2023-02-12T02:24:32.253Z,83.40
2023-02-12T02:25:32.258Z,75.90
2023-02-12T02:26:32.263Z,74.60
2023-02-12T02:27:32.259Z,71.40
2023-02-12T02:28:32.259Z,76.60
2023-02-12T02:29:32.227Z,71.70
2023-02-12T02:30:32.250Z,76.10
2023-02-12T02:31:32.362Z,72.40
2023-02-12T02:32:32.235Z,77.10
2023-02-12T02:33:32.197Z,72.50
2023-02-12T02:34:32.210Z,73.00
2023-02-12T02:35:32.213Z,75.70
2023-02-12T02:36:32.238Z,73.00
2023-02-12T02:37:32.194Z,73.70
2023-02-12T02:38:32.171Z,74.20
2023-02-12T02:39:32.164Z,74.20
2023-02-12T02:40:32.216Z,73.70
2023-02-12T02:41:32.156Z,73.50
2023-02-12T02:42:32.155Z,74.70
2023-02-12T02:43:32.144Z,76.00
2023-02-12T02:44:32.150Z,75.10
2023-02-12T02:45:32.175Z,79.00
2023-02-12T02:46:32.143Z,76.30
2023-02-12T02:47:32.128Z,76.20
2023-02-12T02:48:32.118Z,75.90
2023-02-12T02:49:32.113Z,76.90
2023-02-12T02:50:32.105Z,78.40
2023-02-12T02:51:32.121Z,75.70
2023-02-12T02:52:32.106Z,72.30
2023-02-12T02:53:32.112Z,76.30
2023-02-12T02:54:32.098Z,77.90
2023-02-12T02:55:32.112Z,77.20
2023-02-12T02:56:32.083Z,78.00
2023-02-12T02:57:32.100Z,75.90
2023-02-12T02:58:32.106Z,79.50
2023-02-12T02:59:32.059Z,75.70
2023-02-12T03:00:32.149Z,79.20
2023-02-12T03:01:32.065Z,73.70
2023-02-12T03:02:32.056Z,79.80
2023-02-12T03:03:32.044Z,80.50
2023-02-12T03:04:32.083Z,76.20
2023-02-12T03:05:32.043Z,73.00
2023-02-12T03:06:32.026Z,73.60
2023-02-12T03:07:32.059Z,78.80
2023-02-12T03:08:32.023Z,72.70
2023-02-12T03:09:32.025Z,68.70
2023-02-12T03:10:32.001Z,73.60
2023-02-12T03:11:32.019Z,73.60
2023-02-12T03:12:31.992Z,75.60
2023-02-12T03:13:31.974Z,75.40
2023-02-12T03:14:31.978Z,73.50
2023-02-12T03:15:32.015Z,76.00
2023-02-12T03:16:32.075Z,76.50
2023-02-12T03:17:31.955Z,77.20
2023-02-12T03:18:31.991Z,74.60
2023-02-12T03:19:31.968Z,77.90
2023-02-12T03:20:31.945Z,83.30
2023-02-12T03:21:31.951Z,85.40
2023-02-12T03:22:31.957Z,90.70
2023-02-12T03:23:31.958Z,93.80
2023-02-12T03:24:31.932Z,88.90
2023-02-12T03:25:31.916Z,86.80
2023-02-12T03:26:31.945Z,92.50
2023-02-12T03:27:31.914Z,92.10
2023-02-12T03:28:31.948Z,88.70
2023-02-12T03:29:31.897Z,87.80
2023-02-12T03:30:31.924Z,91.40
2023-02-12T03:31:31.963Z,94.60
2023-02-12T03:32:31.913Z,92.80
2023-02-12T03:33:31.877Z,93.90
2023-02-12T03:34:31.874Z,87.00
2023-02-12T03:35:31.886Z,92.30
2023-02-12T03:36:31.896Z,90.20
2023-02-12T03:37:31.861Z,91.20
2023-02-12T03:38:31.863Z,88.30
2023-02-12T03:39:31.836Z,96.60
2023-02-12T03:40:31.849Z,93.30
2023-02-12T03:41:31.852Z,91.70
2023-02-12T03:42:31.849Z,104.00
2023-02-12T03:43:31.823Z,98.80
2023-02-12T03:44:31.824Z,98.10
2023-02-12T03:45:31.837Z,96.90
2023-02-12T03:46:31.819Z,94.30
2023-02-12T03:47:31.815Z,95.70
2023-02-12T03:48:31.787Z,96.10
2023-02-12T03:49:31.787Z,94.50
2023-02-12T03:50:31.782Z,96.80
2023-02-12T03:51:31.775Z,93.70
2023-02-12T03:52:31.781Z,101.10
2023-02-12T03:53:31.768Z,92.50
2023-02-12T03:54:31.768Z,92.70
2023-02-12T03:55:31.747Z,90.70
2023-02-12T03:56:31.747Z,89.10
2023-02-12T03:57:31.734Z,95.70
2023-02-12T03:58:31.753Z,91.70
2023-02-12T03:59:31.721Z,89.60
2023-02-12T04:00:31.721Z,91.50
2023-02-12T04:01:31.848Z,85.10
2023-02-12T04:02:31.736Z,85.70
2023-02-12T04:03:31.691Z,82.70
2023-02-12T04:04:31.773Z,86.10
2023-02-12T04:05:31.679Z,83.50
2023-02-12T04:06:31.682Z,88.30
2023-02-12T04:07:31.678Z,80.20
2023-02-12T04:08:31.690Z,84.80
2023-02-12T04:09:31.686Z,82.20
2023-02-12T04:10:31.664Z,75.30
2023-02-12T04:11:31.653Z,72.30
2023-02-12T04:12:31.660Z,74.20
2023-02-12T04:13:31.644Z,73.50
2023-02-12T04:14:31.665Z,78.60
2023-02-12T04:15:31.632Z,73.90
2023-02-12T04:16:31.678Z,86.90
2023-02-12T04:17:31.630Z,79.30
2023-02-12T04:18:31.636Z,81.40
2023-02-12T04:19:31.638Z,77.90
2023-02-12T04:20:31.633Z,81.60
2023-02-12T04:21:31.637Z,82.00
2023-02-12T04:22:31.598Z,81.70
2023-02-12T04:23:31.615Z,85.60
2023-02-12T04:24:31.588Z,86.20
2023-02-12T04:25:31.573Z,76.70
2023-02-12T04:26:31.571Z,74.20
2023-02-12T04:27:31.584Z,78.20
2023-02-12T04:28:31.656Z,94.90
2023-02-12T04:29:31.577Z,88.10
2023-02-12T04:30:31.669Z,86.10
2023-02-12T04:31:31.607Z,84.40
2023-02-12T04:32:31.548Z,78.10
2023-02-12T04:33:31.567Z,74.70
2023-02-12T04:34:31.528Z,76.20
2023-02-12T04:35:31.530Z,73.80
2023-02-12T04:36:31.528Z,69.00
2023-02-12T04:37:31.504Z,66.80
2023-02-12T04:38:31.521Z,68.70
2023-02-12T04:39:31.521Z,67.30
2023-02-12T04:40:31.499Z,68.40
2023-02-12T04:41:31.635Z,70.90
2023-02-12T04:42:31.487Z,72.80
2023-02-12T04:43:31.477Z,69.30
2023-02-12T04:44:31.485Z,78.10
2023-02-12T04:45:31.497Z,70.10
2023-02-12T04:46:31.546Z,75.00
2023-02-12T04:47:31.460Z,75.00
2023-02-12T04:48:31.458Z,86.50
2023-02-12T04:49:31.453Z,89.40
2023-02-12T04:50:31.463Z,89.80
2023-02-12T04:51:31.444Z,79.50
2023-02-12T04:52:31.444Z,77.40
2023-02-12T04:53:31.443Z,78.20
2023-02-12T04:54:31.445Z,76.30
2023-02-12T04:55:31.420Z,77.20
2023-02-12T04:56:31.417Z,79.70
2023-02-12T04:57:31.411Z,81.40
2023-02-12T04:58:31.425Z,78.10
2023-02-12T04:59:31.413Z,87.10
2023-02-12T05:00:31.399Z,82.20
2023-02-12T05:01:31.620Z,78.70
2023-02-12T05:02:31.398Z,79.50
2023-02-12T05:03:31.376Z,83.20
2023-02-12T05:04:31.380Z,80.00
2023-02-12T05:05:31.397Z,82.60
2023-02-12T05:06:31.362Z,77.60
2023-02-12T05:07:31.352Z,83.30
2023-02-12T05:08:31.356Z,84.50
2023-02-12T05:09:31.338Z,85.60
2023-02-12T05:10:31.343Z,83.20
2023-02-12T05:11:31.352Z,86.90
2023-02-12T05:12:31.324Z,84.90
2023-02-12T05:13:31.321Z,85.90
2023-02-12T05:14:31.316Z,81.10
2023-02-12T05:15:31.369Z,80.20
2023-02-12T05:16:31.329Z,89.80
2023-02-12T05:17:31.304Z,90.70
2023-02-12T05:18:31.294Z,89.40
2023-02-12T05:19:31.299Z,94.30
2023-02-12T05:20:31.278Z,88.20
2023-02-12T05:21:31.284Z,95.40
2023-02-12T05:22:31.292Z,87.50
2023-02-12T05:23:31.260Z,92.70
2023-02-12T05:24:31.294Z,92.10
2023-02-12T05:25:31.256Z,80.80
2023-02-12T05:26:31.283Z,85.30
2023-02-12T05:27:31.244Z,87.10
2023-02-12T05:28:31.307Z,82.30
2023-02-12T05:29:31.236Z,93.50
2023-02-12T05:30:31.251Z,96.50
2023-02-12T05:31:31.332Z,100.30
2023-02-12T05:32:31.218Z,85.60
2023-02-12T05:33:31.218Z,89.20
2023-02-12T05:34:31.209Z,98.40
2023-02-12T05:35:31.236Z,94.20
2023-02-12T05:36:31.229Z,85.30
2023-02-12T05:37:31.193Z,102.70
2023-02-12T05:38:31.177Z,91.90
2023-02-12T05:39:31.175Z,95.40
2023-02-12T05:40:31.168Z,93.30
2023-02-12T05:41:31.166Z,94.70
2023-02-12T05:42:31.193Z,97.60
2023-02-12T05:43:31.148Z,85.00
2023-02-12T05:44:31.145Z,82.30
2023-02-12T05:45:31.137Z,100.60
2023-02-12T05:46:31.198Z,95.30
2023-02-12T05:47:31.154Z,87.30
2023-02-12T05:48:31.127Z,86.20
2023-02-12T05:49:31.117Z,92.00
2023-02-12T05:50:31.110Z,86.20
2023-02-12T05:51:31.099Z,83.70
2023-02-12T05:52:31.126Z,81.70
2023-02-12T05:53:31.097Z,82.80
2023-02-12T05:54:31.120Z,87.30
2023-02-12T05:55:31.080Z,92.40
2023-02-12T05:56:31.096Z,87.20
2023-02-12T05:57:31.059Z,94.80
2023-02-12T05:58:31.110Z,81.30
2023-02-12T05:59:31.052Z,87.60
2023-02-12T06:00:31.091Z,91.10
2023-02-12T06:01:31.050Z,91.10
2023-02-12T06:02:31.083Z,101.70
2023-02-12T06:03:31.055Z,100.90
2023-02-12T06:04:31.060Z,105.60
2023-02-12T06:05:31.022Z,106.40
2023-02-12T06:06:31.024Z,100.90
2023-02-12T06:07:31.030Z,96.30
2023-02-12T06:08:31.017Z,95.00
2023-02-12T06:09:30.998Z,89.60
2023-02-12T06:10:31.016Z,94.70
2023-02-12T06:11:30.991Z,92.70
2023-02-12T06:12:31.004Z,93.20
2023-02-12T06:13:30.997Z,100.50
2023-02-12T06:14:32.097Z,92.30
2023-02-12T06:15:30.967Z,106.10
2023-02-12T06:16:31.025Z,102.30
2023-02-12T06:17:30.994Z,99.70
2023-02-12T06:18:30.950Z,99.20
2023-02-12T06:19:30.936Z,105.90
2023-02-12T06:20:30.946Z,104.60
2023-02-12T06:21:30.929Z,102.10
2023-02-12T06:22:30.924Z,93.00
2023-02-12T06:23:30.938Z,97.00
2023-02-12T06:24:30.920Z,92.00
2023-02-12T06:25:30.926Z,95.60
2023-02-12T06:26:30.919Z,96.40
2023-02-12T06:27:30.909Z,93.10
2023-02-12T06:28:30.969Z,87.70
2023-02-12T06:29:30.923Z,83.70
2023-02-12T06:30:30.881Z,96.30
2023-02-12T06:31:31.066Z,90.00
2023-02-12T06:32:30.932Z,89.90
2023-02-12T06:33:30.938Z,102.50
2023-02-12T06:34:30.880Z,86.50
2023-02-12T06:35:30.874Z,100.00
2023-02-12T06:36:30.856Z,89.90
2023-02-12T06:37:30.936Z,88.70
2023-02-12T06:38:30.873Z,88.30
2023-02-12T06:39:30.849Z,84.10
2023-02-12T06:40:30.840Z,90.10
2023-02-12T06:41:30.859Z,83.60
2023-02-12T06:42:32.983Z,95.80
2023-02-12T06:43:30.855Z,104.10
2023-02-12T06:44:30.816Z,93.40
2023-02-12T06:45:30.827Z,93.70
2023-02-12T06:46:30.864Z,83.70
2023-02-12T06:47:30.845Z,82.40
2023-02-12T06:48:30.810Z,95.60
2023-02-12T06:49:30.798Z,99.50
2023-02-12T06:50:30.792Z,95.90
2023-02-12T06:51:30.777Z,91.00
2023-02-12T06:52:30.802Z,92.40
2023-02-12T06:53:30.778Z,83.50
2023-02-12T06:54:30.783Z,92.80
2023-02-12T06:55:30.782Z,94.70
2023-02-12T06:56:30.771Z,89.60
2023-02-12T06:57:30.757Z,85.20
2023-02-12T06:58:30.763Z,104.40
2023-02-12T06:59:30.749Z,98.10
2023-02-12T07:00:30.891Z,93.90
2023-02-12T07:01:30.763Z,87.20
2023-02-12T07:02:30.734Z,95.60
2023-02-12T07:03:30.723Z,85.30
2023-02-12T07:04:30.723Z,100.20
2023-02-12T07:05:30.714Z,104.90
2023-02-12T07:06:30.722Z,97.40
2023-02-12T07:07:30.720Z,93.20
2023-02-12T07:08:30.709Z,93.50
2023-02-12T07:09:30.688Z,94.00
2023-02-12T07:10:30.723Z,88.60
2023-02-12T07:11:30.689Z,87.70
2023-02-12T07:12:30.721Z,92.40
2023-02-12T07:13:30.687Z,98.50
2023-02-12T07:14:30.693Z,107.00
2023-02-12T07:15:30.685Z,82.90
2023-02-12T07:16:30.704Z,80.80
2023-02-12T07:17:30.638Z,78.90
2023-02-12T07:18:30.703Z,82.70
2023-02-12T07:19:30.625Z,81.10
2023-02-12T07:20:30.717Z,72.10
2023-02-12T07:21:30.630Z,74.20
2023-02-12T07:22:30.618Z,76.80
2023-02-12T07:23:30.610Z,112.90
2023-02-12T07:24:30.625Z,81.20
2023-02-12T07:25:30.615Z,68.70
2023-02-12T07:26:30.617Z,67.10
2023-02-12T07:27:30.596Z,67.00
2023-02-12T07:28:30.614Z,62.60
2023-02-12T07:29:30.574Z,70.90
2023-02-12T07:30:30.833Z,72.40
2023-02-12T07:31:30.673Z,77.20
2023-02-12T07:32:30.570Z,84.10
2023-02-12T07:33:30.551Z,86.80
2023-02-12T07:34:30.542Z,81.80
2023-02-12T07:35:30.536Z,89.10
2023-02-12T07:36:30.553Z,85.40
2023-02-12T07:37:30.529Z,86.90
2023-02-12T07:38:30.523Z,88.90
2023-02-12T07:39:30.524Z,91.20
2023-02-12T07:40:30.522Z,91.60
2023-02-12T07:41:30.536Z,88.00
2023-02-12T07:42:30.511Z,97.00
2023-02-12T07:43:30.497Z,89.20
2023-02-12T07:44:30.494Z,92.70
2023-02-12T07:45:30.497Z,91.90
2023-02-12T07:46:30.524Z,84.00
2023-02-12T07:47:30.474Z,94.20
2023-02-12T07:48:30.482Z,95.70
2023-02-12T07:49:30.473Z,101.00
2023-02-12T07:50:30.477Z,102.10
2023-02-12T07:51:30.475Z,93.10
2023-02-12T07:52:30.470Z,100.20
2023-02-12T07:53:30.435Z,95.70
2023-02-12T07:54:30.450Z,104.10
2023-02-12T07:55:30.430Z,100.70
2023-02-12T07:56:30.439Z,103.60
2023-02-12T07:57:30.414Z,100.80
2023-02-12T07:58:30.428Z,91.60
2023-02-12T07:59:30.410Z,100.30
2023-02-12T08:00:30.397Z,110.30
2023-02-12T08:01:30.412Z,101.70
2023-02-12T08:02:30.415Z,113.60
2023-02-12T08:03:30.373Z,104.40
2023-02-12T08:04:30.535Z,109.40
2023-02-12T08:05:30.392Z,98.20
2023-02-12T08:06:30.362Z,108.30
2023-02-12T08:07:30.369Z,111.00
2023-02-12T08:08:30.359Z,92.40
2023-02-12T08:09:30.389Z,103.60
2023-02-12T08:10:32.395Z,107.60
2023-02-12T08:11:30.351Z,102.30
2023-02-12T08:12:30.385Z,112.00
2023-02-12T08:13:30.353Z,109.90
2023-02-12T08:14:30.361Z,110.30
2023-02-12T08:15:30.320Z,109.10
2023-02-12T08:16:30.358Z,104.50
2023-02-12T08:17:30.320Z,113.40
2023-02-12T08:18:30.313Z,98.40
2023-02-12T08:19:30.299Z,99.80
2023-02-12T08:20:30.324Z,113.90
2023-02-12T08:21:30.293Z,107.00
2023-02-12T08:22:30.291Z,97.80
2023-02-12T08:23:30.281Z,103.40
2023-02-12T08:24:30.301Z,102.40
2023-02-12T08:25:30.271Z,97.50
2023-02-12T08:26:30.286Z,104.10
2023-02-12T08:27:30.300Z,100.60
2023-02-12T08:28:30.276Z,102.50
2023-02-12T08:29:30.271Z,108.60
2023-02-12T08:30:30.246Z,108.40
2023-02-12T08:31:30.262Z,101.20
2023-02-12T08:32:30.293Z,108.60
2023-02-12T08:33:30.242Z,106.40
2023-02-12T08:34:30.225Z,110.90
2023-02-12T08:35:30.229Z,118.50
2023-02-12T08:36:30.208Z,126.30
2023-02-12T08:37:30.202Z,119.00
2023-02-12T08:38:30.211Z,114.10
2023-02-12T08:39:30.190Z,117.40
2023-02-12T08:40:30.226Z,121.60
2023-02-12T08:41:30.211Z,115.20
2023-02-12T08:42:30.181Z,113.90
2023-02-12T08:43:30.194Z,116.20
2023-02-12T08:44:30.182Z,129.60
2023-02-12T08:45:30.171Z,139.30
2023-02-12T08:46:30.210Z,117.70
2023-02-12T08:47:31.403Z,121.20
2023-02-12T08:48:30.156Z,135.70
2023-02-12T08:49:30.152Z,125.20
2023-02-12T08:50:30.169Z,118.60
2023-02-12T08:51:30.123Z,111.20
2023-02-12T08:52:30.200Z,121.20
2023-02-12T08:53:30.157Z,140.80
2023-02-12T08:54:30.138Z,131.80
2023-02-12T08:55:30.121Z,133.90
2023-02-12T08:56:30.132Z,121.30
2023-02-12T08:57:30.137Z,118.80
2023-02-12T08:58:30.115Z,120.60
2023-02-12T08:59:30.113Z,104.90
2023-02-12T09:00:30.128Z,102.90
2023-02-12T09:01:30.136Z,111.20
2023-02-12T09:02:30.087Z,100.60
2023-02-12T09:03:30.059Z,106.20
2023-02-12T09:04:30.090Z,110.30
2023-02-12T09:05:30.044Z,109.80
2023-02-12T09:06:30.067Z,102.60
2023-02-12T09:07:30.051Z,106.40
2023-02-12T09:08:30.060Z,108.80
2023-02-12T09:09:30.065Z,109.20
2023-02-12T09:10:30.024Z,116.70
2023-02-12T09:11:30.033Z,108.10
2023-02-12T09:12:30.034Z,104.80
2023-02-12T09:13:30.025Z,124.50
2023-02-12T09:14:30.001Z,118.00
2023-02-12T09:15:29.998Z,123.30
2023-02-12T09:16:30.064Z,112.60
2023-02-12T09:17:29.995Z,113.00
2023-02-12T09:18:29.984Z,112.70
2023-02-12T09:19:29.978Z,114.60
2023-02-12T09:20:29.966Z,124.70
2023-02-12T09:21:29.969Z,125.40
2023-02-12T09:22:29.952Z,110.20
2023-02-12T09:23:29.963Z,117.70
2023-02-12T09:24:29.941Z,122.90
2023-02-12T09:25:29.943Z,104.80
2023-02-12T09:26:29.959Z,116.50
2023-02-12T09:27:31.354Z,107.10
2023-02-12T09:28:29.986Z,112.60
2023-02-12T09:29:29.951Z,112.80
2023-02-12T09:30:29.929Z,112.40
2023-02-12T09:31:30.045Z,133.30
2023-02-12T09:32:29.897Z,113.10
2023-02-12T09:33:29.923Z,103.60
2023-02-12T09:34:29.897Z,114.10
2023-02-12T09:35:29.906Z,111.20
2023-02-12T09:36:29.901Z,107.20
2023-02-12T09:37:29.877Z,111.00
2023-02-12T09:38:29.922Z,105.20
2023-02-12T09:39:29.932Z,102.60
2023-02-12T09:40:29.872Z,112.60
2023-02-12T09:41:29.876Z,103.90
2023-02-12T09:42:29.888Z,106.30
2023-02-12T09:43:29.844Z,105.50
2023-02-12T09:44:29.911Z,108.00
2023-02-12T09:45:29.880Z,113.30
2023-02-12T09:46:29.881Z,104.90
2023-02-12T09:47:29.818Z,108.00
2023-02-12T09:48:29.830Z,103.60
2023-02-12T09:49:29.823Z,101.20
2023-02-12T09:50:29.823Z,98.80
2023-02-12T09:51:29.836Z,96.30
2023-02-12T09:52:29.806Z,100.40
2023-02-12T09:53:29.786Z,110.60
2023-02-12T09:54:29.805Z,91.90
2023-02-12T09:55:29.785Z,100.00
2023-02-12T09:56:29.793Z,100.80
2023-02-12T09:57:29.786Z,98.90
2023-02-12T09:58:29.796Z,94.80
2023-02-12T09:59:29.779Z,100.80
2023-02-12T10:00:29.794Z,92.30
2023-02-12T10:01:29.857Z,92.50
2023-02-12T10:02:29.747Z,120.40
2023-02-12T10:03:29.755Z,95.00
2023-02-12T10:04:29.785Z,93.40
2023-02-12T10:05:29.758Z,99.50
2023-02-12T10:06:29.763Z,99.40
2023-02-12T10:07:29.728Z,95.30
2023-02-12T10:08:29.761Z,96.30
2023-02-12T10:09:29.720Z,88.50
2023-02-12T10:10:29.710Z,89.10
2023-02-12T10:11:29.750Z,89.20
2023-02-12T10:12:29.710Z,88.80
2023-02-12T10:13:29.692Z,91.60
2023-02-12T10:14:29.705Z,87.50
2023-02-12T10:15:29.713Z,84.70
2023-02-12T10:16:29.675Z,85.10
2023-02-12T10:17:29.692Z,88.50
2023-02-12T10:18:29.688Z,84.20
2023-02-12T10:19:29.670Z,86.40
2023-02-12T10:20:29.679Z,89.20
2023-02-12T10:21:29.686Z,92.00
2023-02-12T10:22:29.648Z,90.10
2023-02-12T10:23:29.667Z,84.10
2023-02-12T10:24:29.651Z,85.30
2023-02-12T10:25:29.646Z,74.60
2023-02-12T10:26:29.659Z,81.70
2023-02-12T10:27:29.626Z,87.00
2023-02-12T10:28:29.799Z,84.40
2023-02-12T10:29:29.611Z,79.60
2023-02-12T10:30:29.608Z,83.40
2023-02-12T10:31:30.578Z,82.70
2023-02-12T10:32:29.588Z,76.70
2023-02-12T10:33:29.585Z,85.60
2023-02-12T10:34:29.585Z,80.80
2023-02-12T10:35:29.572Z,79.40
2023-02-12T10:36:29.557Z,87.50
2023-02-12T10:37:29.571Z,81.20
2023-02-12T10:38:29.570Z,84.20
2023-02-12T10:39:29.536Z,85.00
2023-02-12T10:40:29.557Z,81.60
2023-02-12T10:41:29.520Z,72.20
2023-02-12T10:42:29.525Z,76.40
2023-02-12T10:43:29.522Z,77.80
2023-02-12T10:44:29.544Z,82.40
2023-02-12T10:45:29.500Z,79.20
2023-02-12T10:46:29.613Z,69.90
2023-02-12T10:47:29.487Z,74.30
2023-02-12T10:48:29.490Z,71.50
2023-02-12T10:49:29.499Z,77.00
2023-02-12T10:50:29.516Z,75.90
2023-02-12T10:51:29.490Z,71.50
2023-02-12T10:52:29.484Z,72.10
2023-02-12T10:53:29.460Z,73.50
2023-02-12T10:54:29.461Z,72.30
2023-02-12T10:55:29.474Z,68.20
2023-02-12T10:56:29.448Z,60.90
2023-02-12T10:57:29.475Z,62.10
2023-02-12T10:58:29.449Z,62.70
2023-02-12T10:59:29.462Z,62.10
2023-02-12T11:00:29.433Z,57.20
2023-02-12T11:01:29.477Z,57.70
2023-02-12T11:02:29.438Z,59.90
2023-02-12T11:03:29.432Z,55.10
2023-02-12T11:04:29.399Z,53.70
2023-02-12T11:05:29.401Z,59.90
2023-02-12T11:06:29.384Z,58.10
2023-02-12T11:07:29.425Z,57.60
2023-02-12T11:08:29.390Z,59.00
2023-02-12T11:09:29.381Z,58.60
2023-02-12T11:10:29.407Z,60.20
2023-02-12T11:11:29.388Z,54.70
2023-02-12T11:12:29.375Z,59.20
2023-02-12T11:13:29.374Z,56.10
2023-02-12T11:14:29.357Z,58.30
2023-02-12T11:15:29.341Z,60.20
2023-02-12T11:16:29.452Z,57.70
2023-02-12T11:17:29.336Z,54.80
2023-02-12T11:18:29.326Z,52.90
2023-02-12T11:19:29.348Z,55.30
2023-02-12T11:20:29.302Z,54.30
2023-02-12T11:21:29.312Z,52.10
2023-02-12T11:22:29.291Z,53.20
2023-02-12T11:23:29.293Z,57.30
2023-02-12T11:24:29.301Z,56.30
2023-02-12T11:25:29.292Z,50.70
2023-02-12T11:26:29.311Z,41.50
2023-02-12T11:27:29.277Z,28.60
2023-02-12T11:28:29.315Z,21.60
2023-02-12T11:29:29.258Z,22.10
2023-02-12T11:30:29.251Z,29.50
2023-02-12T11:31:29.345Z,41.00
2023-02-12T11:32:29.228Z,44.80
2023-02-12T11:33:29.231Z,47.80
2023-02-12T11:34:29.239Z,45.10
2023-02-12T11:35:29.245Z,45.50
2023-02-12T11:36:29.225Z,47.10
2023-02-12T11:37:29.205Z,46.40
2023-02-12T11:38:29.197Z,45.30
2023-02-12T11:39:29.205Z,40.10
2023-02-12T11:40:29.184Z,43.00
2023-02-12T11:41:29.190Z,40.60
2023-02-12T11:42:29.194Z,39.70
2023-02-12T11:43:29.183Z,40.70
2023-02-12T11:44:29.183Z,39.90
2023-02-12T11:45:29.173Z,40.80
2023-02-12T11:46:29.198Z,40.60
2023-02-12T11:47:29.151Z,38.70
2023-02-12T11:48:29.167Z,39.90
2023-02-12T11:49:29.165Z,36.80
2023-02-12T11:50:29.165Z,45.30
2023-02-12T11:51:29.165Z,45.30
2023-02-12T11:52:29.160Z,48.50
2023-02-12T11:53:29.136Z,50.80
2023-02-12T11:54:29.171Z,52.20
2023-02-12T11:55:30.524Z,50.00
2023-02-12T11:56:29.124Z,46.30
2023-02-12T11:57:29.145Z,47.80
2023-02-12T11:58:29.110Z,47.20
2023-02-12T11:59:29.100Z,46.20
2023-02-12T12:00:29.099Z,48.30
2023-02-12T12:01:29.083Z,48.50
2023-02-12T12:02:29.087Z,42.80
2023-02-12T12:03:29.129Z,47.20
2023-02-12T12:04:29.115Z,50.00
2023-02-12T12:05:29.071Z,46.10
2023-02-12T12:06:29.051Z,45.50
2023-02-12T12:07:29.048Z,42.60
2023-02-12T12:08:29.058Z,40.40
2023-02-12T12:09:29.027Z,39.80
2023-02-12T12:10:29.017Z,39.90
2023-02-12T12:11:29.014Z,39.60
2023-02-12T12:12:29.053Z,38.60
2023-02-12T12:13:29.040Z,39.60
2023-02-12T12:14:29.026Z,40.30
2023-02-12T12:15:29.010Z,39.40
2023-02-12T12:16:29.053Z,38.20
2023-02-12T12:17:28.986Z,37.20
2023-02-12T12:18:28.970Z,36.40
2023-02-12T12:19:29.190Z,35.90
2023-02-12T12:20:28.974Z,37.50
2023-02-12T12:21:28.984Z,37.20
2023-02-12T12:22:28.964Z,36.10
2023-02-12T12:23:28.954Z,42.20
2023-02-12T12:24:28.938Z,41.20
2023-02-12T12:25:28.932Z,35.50
2023-02-12T12:26:28.962Z,34.80
2023-02-12T12:27:28.942Z,39.00
2023-02-12T12:28:29.050Z,34.50
2023-02-12T12:29:28.900Z,36.60
2023-02-12T12:30:28.921Z,37.90
2023-02-12T12:31:28.930Z,37.20
2023-02-12T12:32:28.912Z,34.40
2023-02-12T12:33:28.914Z,36.40
2023-02-12T12:34:28.908Z,35.10
2023-02-12T12:35:28.868Z,39.70
2023-02-12T12:36:28.871Z,39.40
2023-02-12T12:37:28.907Z,39.10
2023-02-12T12:38:28.851Z,40.10
2023-02-12T12:39:28.861Z,38.20
2023-02-12T12:40:28.851Z,36.50
2023-02-12T12:41:28.860Z,34.30
2023-02-12T12:42:28.880Z,30.20
2023-02-12T12:43:28.845Z,30.50
2023-02-12T12:44:28.852Z,35.20
2023-02-12T12:45:28.901Z,33.70
2023-02-12T12:46:28.823Z,35.30
2023-02-12T12:47:28.810Z,36.00
2023-02-12T12:48:28.825Z,34.60